sensor_id;sensor_type;location;lat;lon;timestamp;temperature;humidity
15700;DHT22;7950;42.744;23.174;2022-09-12T00:00:14;15.00;99.90
15700;DHT22;7950;42.744;23.174;2022-09-12T00:02:42;15.00;99.90
15700;DHT22;7950;42.744;23.174;2022-09-12T00:05:11;15.00;99.90
15700;DHT22;7950;42.744;23.174;2022-09-12T00:07:41;14.90;99.90
15700;DHT22;7950;42.744;23.174;2022-09-12T00:10:10;15.00;99.90
15700;DHT22;7950;42.744;23.174;2022-09-12T00:12:39;15.00;99.90
15700;DHT22;7950;42.744;23.174;2022-09-12T00:15:10;14.90;99.90
15700;DHT22;7950;42.744;23.174;2022-09-12T00:17:39;14.90;99.90
15700;DHT22;7950;42.744;23.174;2022-09-12T00:20:09;14.90;99.90
15700;DHT22;7950;42.744;23.174;2022-09-12T00:22:38;14.90;99.90
15700;DHT22;7950;42.744;23.174;2022-09-12T00:25:07;14.90;99.90
15700;DHT22;7950;42.744;23.174;2022-09-12T00:27:35;14.80;99.90
15700;DHT22;7950;42.744;23.174;2022-09-12T00:30:05;14.80;99.90
15700;DHT22;7950;42.744;23.174;2022-09-12T00:32:35;14.80;99.90
15700;DHT22;7950;42.744;23.174;2022-09-12T00:35:05;14.80;99.90
15700;DHT22;7950;42.744;23.174;2022-09-12T00:37:34;14.70;99.90
15700;DHT22;7950;42.744;23.174;2022-09-12T00:40:03;14.70;99.90
15700;DHT22;7950;42.744;23.174;2022-09-12T00:42:32;14.80;99.90
15700;DHT22;7950;42.744;23.174;2022-09-12T00:45:01;14.70;99.90
15700;DHT22;7950;42.744;23.174;2022-09-12T00:47:31;14.80;99.90
15700;DHT22;7950;42.744;23.174;2022-09-12T00:50:05;14.80;99.90
15700;DHT22;7950;42.744;23.174;2022-09-12T00:52:39;14.80;99.90
15700;DHT22;7950;42.744;23.174;2022-09-12T00:55:13;14.70;99.90
15700;DHT22;7950;42.744;23.174;2022-09-12T00:57:48;14.70;99.90
15700;DHT22;7950;42.744;23.174;2022-09-12T01:00:25;14.60;99.90
15700;DHT22;7950;42.744;23.174;2022-09-12T01:02:57;14.60;99.90
15700;DHT22;7950;42.744;23.174;2022-09-12T01:05:33;14.60;99.90
15700;DHT22;7950;42.744;23.174;2022-09-12T01:08:04;14.50;99.90
15700;DHT22;7950;42.744;23.174;2022-09-12T01:10:34;14.50;99.90
15700;DHT22;7950;42.744;23.174;2022-09-12T01:13:07;14.50;99.90
15700;DHT22;7950;42.744;23.174;2022-09-12T01:15:37;14.50;99.90
15700;DHT22;7950;42.744;23.174;2022-09-12T01:18:13;14.50;99.90
15700;DHT22;7950;42.744;23.174;2022-09-12T01:21:03;14.40;99.90
15700;DHT22;7950;42.744;23.174;2022-09-12T01:24:10;14.40;99.90
15700;DHT22;7950;42.744;23.174;2022-09-12T01:30:45;14.30;99.90
15700;DHT22;7950;42.744;23.174;2022-09-12T01:33:41;14.20;99.90
15700;DHT22;7950;42.744;23.174;2022-09-12T01:36:31;14.20;99.90
15700;DHT22;7950;42.744;23.174;2022-09-12T01:39:08;14.20;99.90
15700;DHT22;7950;42.744;23.174;2022-09-12T01:41:54;14.20;99.90
15700;DHT22;7950;42.744;23.174;2022-09-12T01:44:48;14.10;99.90
15700;DHT22;7950;42.744;23.174;2022-09-12T01:47:29;14.10;99.90
15700;DHT22;7950;42.744;23.174;2022-09-12T01:50:08;14.00;99.90
15700;DHT22;7950;42.744;23.174;2022-09-12T01:52:44;14.10;99.90
15700;DHT22;7950;42.744;23.174;2022-09-12T01:55:19;14.10;99.90
15700;DHT22;7950;42.744;23.174;2022-09-12T01:57:55;14.10;99.90
15700;DHT22;7950;42.744;23.174;2022-09-12T02:00:27;14.10;99.90
15700;DHT22;7950;42.744;23.174;2022-09-12T02:03:01;14.10;99.90
15700;DHT22;7950;42.744;23.174;2022-09-12T02:05:37;14.10;99.90
15700;DHT22;7950;42.744;23.174;2022-09-12T02:08:45;14.10;99.90
15700;DHT22;7950;42.744;23.174;2022-09-12T02:11:17;14.00;99.90
15700;DHT22;7950;42.744;23.174;2022-09-12T02:13:49;14.00;99.90
15700;DHT22;7950;42.744;23.174;2022-09-12T02:16:27;14.00;99.90
15700;DHT22;7950;42.744;23.174;2022-09-12T02:19:06;14.00;99.90
15700;DHT22;7950;42.744;23.174;2022-09-12T02:21:44;14.00;99.90
15700;DHT22;7950;42.744;23.174;2022-09-12T02:24:16;13.90;99.90
15700;DHT22;7950;42.744;23.174;2022-09-12T02:26:51;13.80;99.90
15700;DHT22;7950;42.744;23.174;2022-09-12T02:29:23;13.80;99.90
15700;DHT22;7950;42.744;23.174;2022-09-12T02:31:56;13.80;99.90
15700;DHT22;7950;42.744;23.174;2022-09-12T02:34:36;13.70;99.90
15700;DHT22;7950;42.744;23.174;2022-09-12T02:37:17;13.70;99.90
15700;DHT22;7950;42.744;23.174;2022-09-12T02:39:54;13.60;99.90
15700;DHT22;7950;42.744;23.174;2022-09-12T02:42:24;13.60;99.90
15700;DHT22;7950;42.744;23.174;2022-09-12T02:44:54;13.60;99.90
15700;DHT22;7950;42.744;23.174;2022-09-12T02:47:27;13.60;99.90
15700;DHT22;7950;42.744;23.174;2022-09-12T02:50:01;13.60;99.90
15700;DHT22;7950;42.744;23.174;2022-09-12T02:52:31;13.60;99.90
15700;DHT22;7950;42.744;23.174;2022-09-12T02:55:01;13.60;99.90
15700;DHT22;7950;42.744;23.174;2022-09-12T02:57:32;13.60;99.90
15700;DHT22;7950;42.744;23.174;2022-09-12T03:00:01;13.60;99.90
15700;DHT22;7950;42.744;23.174;2022-09-12T03:02:44;13.70;99.90
15700;DHT22;7950;42.744;23.174;2022-09-12T03:05:30;13.70;99.90
15700;DHT22;7950;42.744;23.174;2022-09-12T03:08:27;13.70;99.90
15700;DHT22;7950;42.744;23.174;2022-09-12T03:11:13;13.60;99.90
15700;DHT22;7950;42.744;23.174;2022-09-12T03:14:17;13.60;99.90
15700;DHT22;7950;42.744;23.174;2022-09-12T03:17:02;13.60;99.90
15700;DHT22;7950;42.744;23.174;2022-09-12T03:19:48;13.60;99.90
15700;DHT22;7950;42.744;23.174;2022-09-12T03:22:29;13.50;99.90
15700;DHT22;7950;42.744;23.174;2022-09-12T03:25:07;13.50;99.90
15700;DHT22;7950;42.744;23.174;2022-09-12T03:27:45;13.60;99.90
15700;DHT22;7950;42.744;23.174;2022-09-12T03:30:20;13.60;99.90
15700;DHT22;7950;42.744;23.174;2022-09-12T03:33:27;13.50;99.90
15700;DHT22;7950;42.744;23.174;2022-09-12T03:35:56;13.50;99.90
15700;DHT22;7950;42.744;23.174;2022-09-12T03:38:26;13.50;99.90
15700;DHT22;7950;42.744;23.174;2022-09-12T03:40:54;13.50;99.90
15700;DHT22;7950;42.744;23.174;2022-09-12T03:43:23;13.50;99.90
15700;DHT22;7950;42.744;23.174;2022-09-12T03:45:51;13.50;99.90
15700;DHT22;7950;42.744;23.174;2022-09-12T03:48:20;13.50;99.90
15700;DHT22;7950;42.744;23.174;2022-09-12T03:50:48;13.60;99.90
15700;DHT22;7950;42.744;23.174;2022-09-12T03:53:17;13.60;99.90
15700;DHT22;7950;42.744;23.174;2022-09-12T03:55:47;13.60;99.90
15700;DHT22;7950;42.744;23.174;2022-09-12T03:58:15;13.60;99.90
15700;DHT22;7950;42.744;23.174;2022-09-12T04:00:44;13.60;99.90
15700;DHT22;7950;42.744;23.174;2022-09-12T04:03:38;13.60;99.90
15700;DHT22;7950;42.744;23.174;2022-09-12T04:06:08;13.50;99.90
15700;DHT22;7950;42.744;23.174;2022-09-12T04:08:39;13.50;99.90
15700;DHT22;7950;42.744;23.174;2022-09-12T04:11:11;13.50;99.90
15700;DHT22;7950;42.744;23.174;2022-09-12T04:13:43;13.50;99.90
15700;DHT22;7950;42.744;23.174;2022-09-12T04:16:13;13.50;99.90
15700;DHT22;7950;42.744;23.174;2022-09-12T04:18:44;13.60;99.90
15700;DHT22;7950;42.744;23.174;2022-09-12T04:21:15;13.60;99.90
15700;DHT22;7950;42.744;23.174;2022-09-12T04:23:46;13.60;99.90
15700;DHT22;7950;42.744;23.174;2022-09-12T04:26:17;13.60;99.90
15700;DHT22;7950;42.744;23.174;2022-09-12T04:28:47;13.60;99.90
15700;DHT22;7950;42.744;23.174;2022-09-12T04:31:20;13.70;99.90
15700;DHT22;7950;42.744;23.174;2022-09-12T04:33:52;13.70;99.90
15700;DHT22;7950;42.744;23.174;2022-09-12T04:36:22;13.70;99.90
15700;DHT22;7950;42.744;23.174;2022-09-12T04:38:52;13.80;99.90
15700;DHT22;7950;42.744;23.174;2022-09-12T04:41:24;13.80;99.90
15700;DHT22;7950;42.744;23.174;2022-09-12T04:43:57;13.80;99.90
15700;DHT22;7950;42.744;23.174;2022-09-12T04:46:28;13.90;99.90
15700;DHT22;7950;42.744;23.174;2022-09-12T04:48:58;14.00;99.90
15700;DHT22;7950;42.744;23.174;2022-09-12T04:51:28;14.00;99.90
15700;DHT22;7950;42.744;23.174;2022-09-12T04:54:00;14.10;99.90
15700;DHT22;7950;42.744;23.174;2022-09-12T04:56:31;14.20;99.90
15700;DHT22;7950;42.744;23.174;2022-09-12T04:59:00;14.30;99.90
15700;DHT22;7950;42.744;23.174;2022-09-12T05:01:29;14.40;99.90
15700;DHT22;7950;42.744;23.174;2022-09-12T05:03:59;14.50;99.90
15700;DHT22;7950;42.744;23.174;2022-09-12T05:06:29;14.60;99.90
15700;DHT22;7950;42.744;23.174;2022-09-12T05:09:26;14.70;99.90
15700;DHT22;7950;42.744;23.174;2022-09-12T05:11:56;14.90;99.90
15700;DHT22;7950;42.744;23.174;2022-09-12T05:14:32;14.90;99.90
15700;DHT22;7950;42.744;23.174;2022-09-12T05:17:03;15.00;99.90
15700;DHT22;7950;42.744;23.174;2022-09-12T05:19:32;15.00;99.90
15700;DHT22;7950;42.744;23.174;2022-09-12T05:22:01;15.10;99.90
15700;DHT22;7950;42.744;23.174;2022-09-12T05:24:31;15.20;99.90
15700;DHT22;7950;42.744;23.174;2022-09-12T05:27:01;15.30;99.90
15700;DHT22;7950;42.744;23.174;2022-09-12T05:29:30;15.40;99.90
15700;DHT22;7950;42.744;23.174;2022-09-12T05:32:00;15.60;99.90
15700;DHT22;7950;42.744;23.174;2022-09-12T05:34:29;15.80;99.90
15700;DHT22;7950;42.744;23.174;2022-09-12T05:36:58;15.90;99.90
15700;DHT22;7950;42.744;23.174;2022-09-12T05:39:26;16.00;99.90
15700;DHT22;7950;42.744;23.174;2022-09-12T05:41:55;16.20;99.90
15700;DHT22;7950;42.744;23.174;2022-09-12T05:44:24;16.30;99.90
15700;DHT22;7950;42.744;23.174;2022-09-12T05:46:54;16.30;99.90
15700;DHT22;7950;42.744;23.174;2022-09-12T05:49:22;16.40;99.90
15700;DHT22;7950;42.744;23.174;2022-09-12T05:51:51;16.60;99.90
15700;DHT22;7950;42.744;23.174;2022-09-12T05:54:19;16.60;99.90
15700;DHT22;7950;42.744;23.174;2022-09-12T05:56:48;16.70;99.90
15700;DHT22;7950;42.744;23.174;2022-09-12T05:59:18;16.80;99.90
15700;DHT22;7950;42.744;23.174;2022-09-12T06:01:51;16.80;99.90
15700;DHT22;7950;42.744;23.174;2022-09-12T06:04:19;16.90;99.90
15700;DHT22;7950;42.744;23.174;2022-09-12T06:06:49;17.00;99.90
15700;DHT22;7950;42.744;23.174;2022-09-12T06:09:18;17.20;99.90
15700;DHT22;7950;42.744;23.174;2022-09-12T06:11:47;17.30;99.90
15700;DHT22;7950;42.744;23.174;2022-09-12T06:14:16;17.40;99.90
15700;DHT22;7950;42.744;23.174;2022-09-12T06:16:45;17.60;99.90
15700;DHT22;7950;42.744;23.174;2022-09-12T06:19:17;17.70;99.90
15700;DHT22;7950;42.744;23.174;2022-09-12T06:21:47;17.90;99.90
15700;DHT22;7950;42.744;23.174;2022-09-12T06:24:18;17.90;99.90
15700;DHT22;7950;42.744;23.174;2022-09-12T06:26:48;18.00;99.90
15700;DHT22;7950;42.744;23.174;2022-09-12T06:29:18;18.10;99.90
15700;DHT22;7950;42.744;23.174;2022-09-12T06:31:47;18.20;99.90
15700;DHT22;7950;42.744;23.174;2022-09-12T06:34:17;18.20;99.90
15700;DHT22;7950;42.744;23.174;2022-09-12T06:36:48;18.20;99.90
15700;DHT22;7950;42.744;23.174;2022-09-12T06:39:19;18.30;99.90
15700;DHT22;7950;42.744;23.174;2022-09-12T06:41:49;18.30;99.90
15700;DHT22;7950;42.744;23.174;2022-09-12T06:44:20;18.30;99.90
15700;DHT22;7950;42.744;23.174;2022-09-12T06:46:49;18.30;99.90
15700;DHT22;7950;42.744;23.174;2022-09-12T06:49:20;18.30;99.90
15700;DHT22;7950;42.744;23.174;2022-09-12T06:51:49;18.30;99.90
15700;DHT22;7950;42.744;23.174;2022-09-12T06:54:17;18.20;99.90
15700;DHT22;7950;42.744;23.174;2022-09-12T06:56:47;18.30;99.90
15700;DHT22;7950;42.744;23.174;2022-09-12T06:59:15;18.50;99.90
15700;DHT22;7950;42.744;23.174;2022-09-12T07:01:44;18.60;99.90
15700;DHT22;7950;42.744;23.174;2022-09-12T07:04:13;18.60;99.90
15700;DHT22;7950;42.744;23.174;2022-09-12T07:06:43;18.60;99.90
15700;DHT22;7950;42.744;23.174;2022-09-12T07:09:12;18.50;99.90
15700;DHT22;7950;42.744;23.174;2022-09-12T07:11:43;18.50;99.90
15700;DHT22;7950;42.744;23.174;2022-09-12T07:14:13;18.50;99.90
15700;DHT22;7950;42.744;23.174;2022-09-12T07:16:55;18.60;99.90
15700;DHT22;7950;42.744;23.174;2022-09-12T07:19:24;18.70;99.90
15700;DHT22;7950;42.744;23.174;2022-09-12T07:21:54;18.70;99.90
15700;DHT22;7950;42.744;23.174;2022-09-12T07:24:24;18.80;99.90
15700;DHT22;7950;42.744;23.174;2022-09-12T07:27:08;18.90;99.90
15700;DHT22;7950;42.744;23.174;2022-09-12T07:29:36;19.00;99.90
15700;DHT22;7950;42.744;23.174;2022-09-12T07:32:05;19.10;99.90
15700;DHT22;7950;42.744;23.174;2022-09-12T07:34:35;19.20;99.90
15700;DHT22;7950;42.744;23.174;2022-09-12T07:37:05;19.40;99.90
15700;DHT22;7950;42.744;23.174;2022-09-12T07:39:34;19.40;99.90
15700;DHT22;7950;42.744;23.174;2022-09-12T07:42:04;19.50;99.90
15700;DHT22;7950;42.744;23.174;2022-09-12T07:44:33;19.50;99.90
15700;DHT22;7950;42.744;23.174;2022-09-12T07:47:01;19.50;99.90
15700;DHT22;7950;42.744;23.174;2022-09-12T07:49:30;19.50;99.90
15700;DHT22;7950;42.744;23.174;2022-09-12T07:51:59;19.60;99.90
15700;DHT22;7950;42.744;23.174;2022-09-12T07:54:29;19.70;99.90
15700;DHT22;7950;42.744;23.174;2022-09-12T07:56:59;19.70;99.90
15700;DHT22;7950;42.744;23.174;2022-09-12T07:59:27;19.80;99.90
15700;DHT22;7950;42.744;23.174;2022-09-12T08:02:16;20.00;99.90
15700;DHT22;7950;42.744;23.174;2022-09-12T08:04:51;20.10;99.90
15700;DHT22;7950;42.744;23.174;2022-09-12T08:07:20;20.10;99.90
15700;DHT22;7950;42.744;23.174;2022-09-12T08:09:49;20.20;99.90
15700;DHT22;7950;42.744;23.174;2022-09-12T08:12:19;20.10;99.90
15700;DHT22;7950;42.744;23.174;2022-09-12T08:14:47;20.10;99.90
15700;DHT22;7950;42.744;23.174;2022-09-12T08:17:16;20.20;99.90
15700;DHT22;7950;42.744;23.174;2022-09-12T08:19:44;20.20;99.90
15700;DHT22;7950;42.744;23.174;2022-09-12T08:22:14;20.30;99.90
15700;DHT22;7950;42.744;23.174;2022-09-12T08:24:42;20.30;99.90
15700;DHT22;7950;42.744;23.174;2022-09-12T08:27:12;20.30;99.90
15700;DHT22;7950;42.744;23.174;2022-09-12T08:29:41;20.40;99.90
15700;DHT22;7950;42.744;23.174;2022-09-12T08:32:10;20.40;99.90
15700;DHT22;7950;42.744;23.174;2022-09-12T08:34:38;20.50;99.90
15700;DHT22;7950;42.744;23.174;2022-09-12T08:37:07;20.50;99.90
15700;DHT22;7950;42.744;23.174;2022-09-12T08:39:35;20.50;99.90
15700;DHT22;7950;42.744;23.174;2022-09-12T08:42:05;20.50;99.90
15700;DHT22;7950;42.744;23.174;2022-09-12T08:44:50;20.40;99.90
15700;DHT22;7950;42.744;23.174;2022-09-12T08:47:34;20.40;99.90
15700;DHT22;7950;42.744;23.174;2022-09-12T08:50:13;20.30;99.90
15700;DHT22;7950;42.744;23.174;2022-09-12T08:52:51;20.30;99.90
15700;DHT22;7950;42.744;23.174;2022-09-12T08:55:33;20.30;99.90
15700;DHT22;7950;42.744;23.174;2022-09-12T08:58:11;20.30;99.90
15700;DHT22;7950;42.744;23.174;2022-09-12T09:00:49;20.40;99.90
15700;DHT22;7950;42.744;23.174;2022-09-12T09:03:46;20.50;99.90
15700;DHT22;7950;42.744;23.174;2022-09-12T09:06:54;20.70;99.90
15700;DHT22;7950;42.744;23.174;2022-09-12T09:09:55;20.70;99.90
15700;DHT22;7950;42.744;23.174;2022-09-12T09:12:39;20.90;99.90
15700;DHT22;7950;42.744;23.174;2022-09-12T09:15:25;21.10;99.90
15700;DHT22;7950;42.744;23.174;2022-09-12T09:18:14;21.20;99.90
15700;DHT22;7950;42.744;23.174;2022-09-12T09:20:50;21.20;99.90
15700;DHT22;7950;42.744;23.174;2022-09-12T09:23:25;21.20;99.90
15700;DHT22;7950;42.744;23.174;2022-09-12T09:26:00;21.00;99.90
15700;DHT22;7950;42.744;23.174;2022-09-12T09:28:37;20.70;99.90
15700;DHT22;7950;42.744;23.174;2022-09-12T09:31:14;20.60;99.90
15700;DHT22;7950;42.744;23.174;2022-09-12T09:33:46;20.50;99.90
15700;DHT22;7950;42.744;23.174;2022-09-12T09:36:20;20.40;99.90
15700;DHT22;7950;42.744;23.174;2022-09-12T09:38:54;20.50;99.90
15700;DHT22;7950;42.744;23.174;2022-09-12T09:41:38;20.40;99.90
15700;DHT22;7950;42.744;23.174;2022-09-12T09:44:16;20.30;99.90
15700;DHT22;7950;42.744;23.174;2022-09-12T09:46:45;20.40;99.90
15700;DHT22;7950;42.744;23.174;2022-09-12T09:49:16;20.50;99.90
15700;DHT22;7950;42.744;23.174;2022-09-12T09:51:45;20.50;99.90
15700;DHT22;7950;42.744;23.174;2022-09-12T09:54:19;20.70;99.90
15700;DHT22;7950;42.744;23.174;2022-09-12T09:56:50;20.80;99.90
15700;DHT22;7950;42.744;23.174;2022-09-12T09:59:25;21.00;99.90
15700;DHT22;7950;42.744;23.174;2022-09-12T10:01:56;21.10;99.90
15700;DHT22;7950;42.744;23.174;2022-09-12T10:04:33;21.10;99.90
15700;DHT22;7950;42.744;23.174;2022-09-12T10:07:17;21.10;99.90
15700;DHT22;7950;42.744;23.174;2022-09-12T10:10:04;21.10;99.90
15700;DHT22;7950;42.744;23.174;2022-09-12T10:12:34;20.90;99.90
15700;DHT22;7950;42.744;23.174;2022-09-12T10:15:16;20.80;99.90
15700;DHT22;7950;42.744;23.174;2022-09-12T10:17:47;20.80;99.90
15700;DHT22;7950;42.744;23.174;2022-09-12T10:20:32;20.80;99.90
15700;DHT22;7950;42.744;23.174;2022-09-12T10:23:14;20.90;99.90
15700;DHT22;7950;42.744;23.174;2022-09-12T10:25:57;21.10;99.90
15700;DHT22;7950;42.744;23.174;2022-09-12T10:28:31;21.10;99.90
15700;DHT22;7950;42.744;23.174;2022-09-12T10:31:03;20.90;99.90
15700;DHT22;7950;42.744;23.174;2022-09-12T10:33:39;20.90;99.90
15700;DHT22;7950;42.744;23.174;2022-09-12T10:36:11;21.00;99.90
15700;DHT22;7950;42.744;23.174;2022-09-12T10:38:48;21.00;99.90
15700;DHT22;7950;42.744;23.174;2022-09-12T10:41:19;21.10;99.90
15700;DHT22;7950;42.744;23.174;2022-09-12T10:43:48;21.10;99.90
15700;DHT22;7950;42.744;23.174;2022-09-12T10:46:28;21.20;99.90
15700;DHT22;7950;42.744;23.174;2022-09-12T10:49:21;21.30;99.90
15700;DHT22;7950;42.744;23.174;2022-09-12T10:51:53;21.40;99.90
15700;DHT22;7950;42.744;23.174;2022-09-12T10:54:24;21.50;99.90
15700;DHT22;7950;42.744;23.174;2022-09-12T10:57:17;21.50;99.90
15700;DHT22;7950;42.744;23.174;2022-09-12T11:00:17;21.50;99.90
15700;DHT22;7950;42.744;23.174;2022-09-12T11:03:02;21.60;99.90
15700;DHT22;7950;42.744;23.174;2022-09-12T11:05:54;21.50;99.90
15700;DHT22;7950;42.744;23.174;2022-09-12T11:08:54;21.60;99.90
15700;DHT22;7950;42.744;23.174;2022-09-12T11:11:47;21.60;99.90
15700;DHT22;7950;42.744;23.174;2022-09-12T11:14:42;21.80;99.90
15700;DHT22;7950;42.744;23.174;2022-09-12T11:17:27;21.90;99.90
15700;DHT22;7950;42.744;23.174;2022-09-12T11:20:37;21.80;99.90
15700;DHT22;7950;42.744;23.174;2022-09-12T11:29:56;21.60;99.90
15700;DHT22;7950;42.744;23.174;2022-09-12T11:35:40;21.50;99.90
15700;DHT22;7950;42.744;23.174;2022-09-12T11:38:39;21.10;99.90
15700;DHT22;7950;42.744;23.174;2022-09-12T11:41:22;20.90;99.90
15700;DHT22;7950;42.744;23.174;2022-09-12T11:43:59;20.90;99.90
15700;DHT22;7950;42.744;23.174;2022-09-12T11:46:34;20.90;99.90
15700;DHT22;7950;42.744;23.174;2022-09-12T11:49:10;21.20;99.90
15700;DHT22;7950;42.744;23.174;2022-09-12T11:51:49;21.30;99.90
15700;DHT22;7950;42.744;23.174;2022-09-12T11:54:27;21.40;99.90
15700;DHT22;7950;42.744;23.174;2022-09-12T11:57:10;21.50;99.60
15700;DHT22;7950;42.744;23.174;2022-09-12T11:59:48;21.50;99.90
15700;DHT22;7950;42.744;23.174;2022-09-12T12:02:25;21.50;99.90
15700;DHT22;7950;42.744;23.174;2022-09-12T12:05:03;21.50;99.90
15700;DHT22;7950;42.744;23.174;2022-09-12T12:07:50;21.50;99.90
15700;DHT22;7950;42.744;23.174;2022-09-12T12:10:23;21.60;99.90
15700;DHT22;7950;42.744;23.174;2022-09-12T12:12:57;21.60;99.90
15700;DHT22;7950;42.744;23.174;2022-09-12T12:15:29;21.70;99.90
15700;DHT22;7950;42.744;23.174;2022-09-12T12:18:03;21.70;99.90
15700;DHT22;7950;42.744;23.174;2022-09-12T12:20:38;21.70;99.90
15700;DHT22;7950;42.744;23.174;2022-09-12T12:23:22;21.70;99.40
15700;DHT22;7950;42.744;23.174;2022-09-12T12:25:54;21.70;99.70
15700;DHT22;7950;42.744;23.174;2022-09-12T12:28:59;21.70;99.90
15700;DHT22;7950;42.744;23.174;2022-09-12T12:31:30;21.90;99.90
15700;DHT22;7950;42.744;23.174;2022-09-12T12:34:06;21.80;99.90
15700;DHT22;7950;42.744;23.174;2022-09-12T12:36:49;21.80;99.90
15700;DHT22;7950;42.744;23.174;2022-09-12T12:43:08;21.30;99.90
15700;DHT22;7950;42.744;23.174;2022-09-12T12:46:05;21.20;99.90
15700;DHT22;7950;42.744;23.174;2022-09-12T12:49:07;21.10;99.90
15700;DHT22;7950;42.744;23.174;2022-09-12T12:51:46;21.20;99.90
15700;DHT22;7950;42.744;23.174;2022-09-12T12:57:39;21.10;99.90
15700;DHT22;7950;42.744;23.174;2022-09-12T13:00:43;20.80;99.90
15700;DHT22;7950;42.744;23.174;2022-09-12T13:03:26;20.40;99.90
15700;DHT22;7950;42.744;23.174;2022-09-12T13:06:01;20.40;99.90
15700;DHT22;7950;42.744;23.174;2022-09-12T13:08:35;20.60;99.90
15700;DHT22;7950;42.744;23.174;2022-09-12T13:11:13;20.80;99.90
15700;DHT22;7950;42.744;23.174;2022-09-12T13:13:48;21.00;99.90
15700;DHT22;7950;42.744;23.174;2022-09-12T13:16:32;20.70;99.90
15700;DHT22;7950;42.744;23.174;2022-09-12T13:19:06;20.40;99.90
15700;DHT22;7950;42.744;23.174;2022-09-12T13:21:54;20.30;99.90
15700;DHT22;7950;42.744;23.174;2022-09-12T13:24:23;20.20;99.90
15700;DHT22;7950;42.744;23.174;2022-09-12T13:26:52;20.40;99.90
15700;DHT22;7950;42.744;23.174;2022-09-12T13:29:22;20.60;99.90
15700;DHT22;7950;42.744;23.174;2022-09-12T13:31:53;20.70;99.90
15700;DHT22;7950;42.744;23.174;2022-09-12T13:34:27;20.70;99.90
15700;DHT22;7950;42.744;23.174;2022-09-12T13:37:36;20.80;99.90
15700;DHT22;7950;42.744;23.174;2022-09-12T13:40:30;20.90;99.90
15700;DHT22;7950;42.744;23.174;2022-09-12T13:43:12;20.90;99.90
15700;DHT22;7950;42.744;23.174;2022-09-12T13:45:48;20.90;99.90
15700;DHT22;7950;42.744;23.174;2022-09-12T13:48:19;20.80;99.90
15700;DHT22;7950;42.744;23.174;2022-09-12T13:50:53;20.80;99.90
15700;DHT22;7950;42.744;23.174;2022-09-12T13:53:30;20.80;99.90
15700;DHT22;7950;42.744;23.174;2022-09-12T13:56:03;20.80;99.90
15700;DHT22;7950;42.744;23.174;2022-09-12T13:58:33;20.90;99.80
15700;DHT22;7950;42.744;23.174;2022-09-12T14:01:04;21.00;99.70
15700;DHT22;7950;42.744;23.174;2022-09-12T14:03:41;20.90;99.90
15700;DHT22;7950;42.744;23.174;2022-09-12T14:06:59;20.60;99.90
15700;DHT22;7950;42.744;23.174;2022-09-12T14:09:36;20.40;99.90
15700;DHT22;7950;42.744;23.174;2022-09-12T14:12:14;20.50;99.90
15700;DHT22;7950;42.744;23.174;2022-09-12T14:14:49;20.60;99.90
15700;DHT22;7950;42.744;23.174;2022-09-12T14:17:23;20.60;99.90
15700;DHT22;7950;42.744;23.174;2022-09-12T14:19:56;20.70;99.90
15700;DHT22;7950;42.744;23.174;2022-09-12T14:22:29;20.70;99.90
15700;DHT22;7950;42.744;23.174;2022-09-12T14:24:58;20.70;99.90
15700;DHT22;7950;42.744;23.174;2022-09-12T14:27:34;20.80;99.90
15700;DHT22;7950;42.744;23.174;2022-09-12T14:30:18;20.90;99.90
15700;DHT22;7950;42.744;23.174;2022-09-12T14:33:02;21.10;99.90
15700;DHT22;7950;42.744;23.174;2022-09-12T14:35:46;21.10;99.90
15700;DHT22;7950;42.744;23.174;2022-09-12T14:38:30;21.10;99.90
15700;DHT22;7950;42.744;23.174;2022-09-12T14:41:06;21.10;99.90
15700;DHT22;7950;42.744;23.174;2022-09-12T14:43:39;20.90;99.90
15700;DHT22;7950;42.744;23.174;2022-09-12T14:46:16;20.80;99.90
15700;DHT22;7950;42.744;23.174;2022-09-12T14:48:50;20.70;99.90
15700;DHT22;7950;42.744;23.174;2022-09-12T14:51:25;20.50;99.90
15700;DHT22;7950;42.744;23.174;2022-09-12T14:53:56;20.40;99.90
15700;DHT22;7950;42.744;23.174;2022-09-12T14:56:37;20.20;99.90
15700;DHT22;7950;42.744;23.174;2022-09-12T14:59:27;20.00;99.90
15700;DHT22;7950;42.744;23.174;2022-09-12T15:02:23;19.80;99.90
15700;DHT22;7950;42.744;23.174;2022-09-12T15:05:00;19.60;99.90
15700;DHT22;7950;42.744;23.174;2022-09-12T15:07:44;19.40;99.90
15700;DHT22;7950;42.744;23.174;2022-09-12T15:10:24;19.30;99.90
15700;DHT22;7950;42.744;23.174;2022-09-12T15:13:18;19.20;99.90
15700;DHT22;7950;42.744;23.174;2022-09-12T15:15:51;19.10;99.90
15700;DHT22;7950;42.744;23.174;2022-09-12T15:18:34;19.00;99.90
15700;DHT22;7950;42.744;23.174;2022-09-12T15:21:04;18.90;99.90
15700;DHT22;7950;42.744;23.174;2022-09-12T15:23:36;18.90;99.90
15700;DHT22;7950;42.744;23.174;2022-09-12T15:26:11;18.80;99.90
15700;DHT22;7950;42.744;23.174;2022-09-12T15:28:41;18.70;99.90
15700;DHT22;7950;42.744;23.174;2022-09-12T15:31:14;18.70;99.90
15700;DHT22;7950;42.744;23.174;2022-09-12T15:33:50;18.70;99.90
15700;DHT22;7950;42.744;23.174;2022-09-12T15:36:21;18.70;99.90
15700;DHT22;7950;42.744;23.174;2022-09-12T15:38:51;18.70;99.90
15700;DHT22;7950;42.744;23.174;2022-09-12T15:41:22;18.60;99.90
15700;DHT22;7950;42.744;23.174;2022-09-12T15:43:55;18.50;99.90
15700;DHT22;7950;42.744;23.174;2022-09-12T15:46:24;18.60;99.90
15700;DHT22;7950;42.744;23.174;2022-09-12T15:48:53;18.60;99.90
15700;DHT22;7950;42.744;23.174;2022-09-12T15:51:21;18.60;99.90
15700;DHT22;7950;42.744;23.174;2022-09-12T15:53:50;18.60;99.90
15700;DHT22;7950;42.744;23.174;2022-09-12T15:56:21;18.60;99.90
15700;DHT22;7950;42.744;23.174;2022-09-12T15:58:50;18.60;99.90
15700;DHT22;7950;42.744;23.174;2022-09-12T16:01:26;18.60;99.90
15700;DHT22;7950;42.744;23.174;2022-09-12T16:03:56;18.70;99.90
15700;DHT22;7950;42.744;23.174;2022-09-12T16:06:24;18.70;99.90
15700;DHT22;7950;42.744;23.174;2022-09-12T16:09:02;18.70;99.90
15700;DHT22;7950;42.744;23.174;2022-09-12T16:11:32;18.70;99.90
15700;DHT22;7950;42.744;23.174;2022-09-12T16:14:00;18.60;99.90
15700;DHT22;7950;42.744;23.174;2022-09-12T16:16:29;18.50;99.90
15700;DHT22;7950;42.744;23.174;2022-09-12T16:18:58;18.40;99.90
15700;DHT22;7950;42.744;23.174;2022-09-12T16:21:27;18.30;99.90
15700;DHT22;7950;42.744;23.174;2022-09-12T16:23:55;18.20;99.90
15700;DHT22;7950;42.744;23.174;2022-09-12T16:26:24;18.10;99.90
15700;DHT22;7950;42.744;23.174;2022-09-12T16:28:58;18.10;99.90
15700;DHT22;7950;42.744;23.174;2022-09-12T16:31:27;17.90;99.90
15700;DHT22;7950;42.744;23.174;2022-09-12T16:33:56;17.90;99.90
15700;DHT22;7950;42.744;23.174;2022-09-12T16:36:25;17.80;99.90
15700;DHT22;7950;42.744;23.174;2022-09-12T16:38:54;17.80;99.90
15700;DHT22;7950;42.744;23.174;2022-09-12T16:41:23;17.70;99.90